NFC3NC EDDP-LIRF
Flight info
| Callsign | NFC3NC |
|---|---|
| Flight time | 1h 59m |
| Altitude | 34000 |
| Route | NEVKO1K NEVKO Q243 BAMKI Z94 KOMIB DCT TEDGO/N0464F330 L607 UTABA M738 BATUB DCT TIRUL M738 NATAG DCT LORLO DCT ADOSA DCT PELEG DCT BAGNO/N0397F190 M726 GAVRA Y345 RITEB RITEB4A |
| Aircraft | B738/M-SDE2E3FGHIRWXY/LB1 |
Departure
| Time | 2026-05-07 08:15 |
|---|---|
| Airport | Leipzig/Halle Airport (EDDP) |
Arrival
| Time | 2026-05-07 10:14 |
|---|---|
| Airport | Rome–Fiumicino Leonardo da Vinci International Airport (LIRF) |
| Time | Latitude | Longitude | Altitude | Speed | Heading |
|---|---|---|---|---|---|
| 2026-05-07 07:39 | 51.40857 | 12.23889 | 465 ft | 0 kts | 86° |
| 2026-05-07 08:03 | 51.40856 | 12.23879 | 465 ft | 4 kts | 86° |
| 2026-05-07 08:04 | 51.40855 | 12.23836 | 465 ft | 4 kts | 86° |
| 2026-05-07 08:04 | 51.40849 | 12.23797 | 464 ft | 3 kts | 51° |
| 2026-05-07 08:04 | 51.40834 | 12.23773 | 461 ft | 4 kts | 14° |
| 2026-05-07 08:04 | 51.40808 | 12.23772 | 462 ft | 3 kts | 355° |
| 2026-05-07 08:05 | 51.40804 | 12.23772 | 462 ft | 1 kts | 355° |
| 2026-05-07 08:09 | 51.40814 | 12.23771 | 464 ft | 4 kts | 355° |
| 2026-05-07 08:09 | 51.40839 | 12.23768 | 462 ft | 5 kts | 355° |
| 2026-05-07 08:09 | 51.40885 | 12.23762 | 465 ft | 8 kts | 355° |
| 2026-05-07 08:09 | 51.40954 | 12.23754 | 465 ft | 11 kts | 356° |
| 2026-05-07 08:10 | 51.41039 | 12.23729 | 469 ft | 13 kts | 317° |
| 2026-05-07 08:10 | 51.41048 | 12.23577 | 470 ft | 16 kts | 264° |
| 2026-05-07 08:10 | 51.41039 | 12.23370 | 470 ft | 21 kts | 266° |
| 2026-05-07 08:10 | 51.41028 | 12.23123 | 471 ft | 22 kts | 265° |
| 2026-05-07 08:11 | 51.41014 | 12.22862 | 466 ft | 24 kts | 266° |
| 2026-05-07 08:11 | 51.41003 | 12.22603 | 464 ft | 23 kts | 266° |
| 2026-05-07 08:11 | 51.40992 | 12.22385 | 460 ft | 15 kts | 271° |
| 2026-05-07 08:11 | 51.41037 | 12.22314 | 459 ft | 10 kts | 337° |
| 2026-05-07 08:12 | 51.41072 | 12.22215 | 458 ft | 13 kts | 268° |
| 2026-05-07 08:12 | 51.41064 | 12.22044 | 458 ft | 19 kts | 265° |
| 2026-05-07 08:12 | 51.41053 | 12.21808 | 459 ft | 22 kts | 266° |
| 2026-05-07 08:12 | 51.41041 | 12.21540 | 455 ft | 27 kts | 266° |
| 2026-05-07 08:13 | 51.41029 | 12.21289 | 450 ft | 22 kts | 265° |
| 2026-05-07 08:13 | 51.41018 | 12.21049 | 444 ft | 22 kts | 266° |
| 2026-05-07 08:13 | 51.41006 | 12.20802 | 439 ft | 19 kts | 265° |
| 2026-05-07 08:13 | 51.41013 | 12.20694 | 438 ft | 8 kts | 301° |
| 2026-05-07 08:14 | 51.41073 | 12.20685 | 438 ft | 12 kts | 18° |
| 2026-05-07 08:14 | 51.41143 | 12.20788 | 432 ft | 15 kts | 54° |
| 2026-05-07 08:14 | 51.41182 | 12.20981 | 444 ft | 26 kts | 83° |
| 2026-05-07 08:14 | 51.41217 | 12.21658 | 453 ft | 95 kts | 85° |
| 2026-05-07 08:15 | 51.41286 | 12.23052 | 467 ft | 153 kts | 83° |
| 2026-05-07 08:15 | 51.41379 | 12.24867 | 959 ft | 164 kts | 82° |
| 2026-05-07 08:15 | 51.41327 | 12.26744 | 1679 ft | 175 kts | 107° |
| 2026-05-07 08:15 | 51.40551 | 12.28274 | 2395 ft | 189 kts | 145° |
| 2026-05-07 08:16 | 51.39206 | 12.28878 | 2692 ft | 214 kts | 182° |
| 2026-05-07 08:16 | 51.37693 | 12.28649 | 3137 ft | 223 kts | 188° |
| 2026-05-07 08:16 | 51.36234 | 12.27856 | 3696 ft | 226 kts | 219° |
| 2026-05-07 08:16 | 51.35211 | 12.25871 | 4065 ft | 239 kts | 239° |
| 2026-05-07 08:17 | 51.34312 | 12.23556 | 4581 ft | 250 kts | 240° |
| 2026-05-07 08:17 | 51.33196 | 12.21271 | 4981 ft | 270 kts | 219° |
| 2026-05-07 08:17 | 51.31630 | 12.19613 | 5795 ft | 273 kts | 212° |
| 2026-05-07 08:17 | 51.29991 | 12.17979 | 6554 ft | 278 kts | 212° |
| 2026-05-07 08:18 | 51.28360 | 12.16337 | 7411 ft | 279 kts | 213° |
| 2026-05-07 08:18 | 51.26704 | 12.14654 | 8147 ft | 285 kts | 213° |
| 2026-05-07 08:18 | 51.25037 | 12.12949 | 8997 ft | 287 kts | 213° |
| 2026-05-07 08:18 | 51.23342 | 12.11208 | 9731 ft | 291 kts | 213° |
| 2026-05-07 08:19 | 51.21649 | 12.09467 | 10352 ft | 298 kts | 213° |
| 2026-05-07 08:19 | 51.19840 | 12.07601 | 10548 ft | 321 kts | 213° |
| 2026-05-07 08:19 | 51.17903 | 12.05606 | 10745 ft | 342 kts | 214° |
| 2026-05-07 08:19 | 51.15840 | 12.03482 | 10913 ft | 362 kts | 213° |
| 2026-05-07 08:20 | 51.15204 | 12.02828 | 10975 ft | 367 kts | 214° |
| 2026-05-07 08:20 | 51.13037 | 12.00502 | 11273 ft | 380 kts | 220° |
| 2026-05-07 08:20 | 51.11338 | 11.97276 | 11867 ft | 382 kts | 239° |
| 2026-05-07 08:20 | 51.09998 | 11.93641 | 12582 ft | 382 kts | 240° |
| 2026-05-07 08:21 | 51.08628 | 11.89971 | 13141 ft | 389 kts | 239° |
| 2026-05-07 08:21 | 51.07223 | 11.86251 | 13620 ft | 396 kts | 239° |
| 2026-05-07 08:21 | 51.05792 | 11.82486 | 14247 ft | 398 kts | 238° |
| 2026-05-07 08:21 | 51.04355 | 11.78724 | 14909 ft | 398 kts | 238° |
| 2026-05-07 08:22 | 51.02910 | 11.74950 | 15468 ft | 401 kts | 238° |
| 2026-05-07 08:22 | 51.01449 | 11.71143 | 15984 ft | 405 kts | 238° |
| 2026-05-07 08:22 | 50.99974 | 11.67306 | 16497 ft | 409 kts | 238° |
| 2026-05-07 08:22 | 50.98505 | 11.63490 | 17114 ft | 411 kts | 237° |
| 2026-05-07 08:23 | 50.97005 | 11.59600 | 17629 ft | 414 kts | 237° |
| 2026-05-07 08:23 | 50.95494 | 11.55686 | 18161 ft | 417 kts | 237° |
| 2026-05-07 08:23 | 50.93972 | 11.51749 | 18626 ft | 420 kts | 237° |
| 2026-05-07 08:23 | 50.92440 | 11.47790 | 19104 ft | 422 kts | 237° |
| 2026-05-07 08:24 | 50.90896 | 11.43808 | 19568 ft | 425 kts | 237° |
| 2026-05-07 08:24 | 50.89344 | 11.39809 | 20010 ft | 427 kts | 237° |
| 2026-05-07 08:24 | 50.87784 | 11.35796 | 20438 ft | 430 kts | 237° |
| 2026-05-07 08:24 | 50.86207 | 11.31748 | 20793 ft | 435 kts | 237° |
| 2026-05-07 08:25 | 50.84531 | 11.27725 | 21072 ft | 440 kts | 232° |
| 2026-05-07 08:25 | 50.82665 | 11.23880 | 21522 ft | 441 kts | 230° |
| 2026-05-07 08:25 | 50.80739 | 11.20089 | 21993 ft | 442 kts | 230° |
| 2026-05-07 08:25 | 50.78817 | 11.16294 | 22463 ft | 443 kts | 230° |
| 2026-05-07 08:26 | 50.76470 | 11.11560 | 23017 ft | 446 kts | 231° |
| 2026-05-07 08:26 | 50.74563 | 11.07663 | 23394 ft | 449 kts | 231° |
| 2026-05-07 08:26 | 50.72625 | 11.03786 | 23705 ft | 451 kts | 227° |
| 2026-05-07 08:27 | 50.70387 | 11.00307 | 24008 ft | 452 kts | 218° |
| 2026-05-07 08:27 | 50.67827 | 10.97426 | 24312 ft | 452 kts | 213° |
| 2026-05-07 08:27 | 50.65217 | 10.94659 | 24606 ft | 454 kts | 213° |
| 2026-05-07 08:27 | 50.62598 | 10.91858 | 24874 ft | 457 kts | 213° |
| 2026-05-07 08:28 | 50.59972 | 10.89011 | 25137 ft | 459 kts | 213° |
| 2026-05-07 08:28 | 50.57346 | 10.86137 | 25424 ft | 461 kts | 213° |
| 2026-05-07 08:28 | 50.54707 | 10.83245 | 25691 ft | 463 kts | 213° |
| 2026-05-07 08:28 | 50.52059 | 10.80352 | 26000 ft | 464 kts | 213° |
| 2026-05-07 08:29 | 50.49400 | 10.77469 | 26414 ft | 463 kts | 213° |
| 2026-05-07 08:29 | 50.46751 | 10.74609 | 26871 ft | 461 kts | 213° |
| 2026-05-07 08:29 | 50.44103 | 10.71753 | 27294 ft | 460 kts | 213° |
| 2026-05-07 08:29 | 50.41472 | 10.68908 | 27650 ft | 460 kts | 213° |
| 2026-05-07 08:30 | 50.38830 | 10.66037 | 27802 ft | 465 kts | 214° |
| 2026-05-07 08:30 | 50.36156 | 10.63134 | 27918 ft | 470 kts | 215° |
| 2026-05-07 08:30 | 50.33467 | 10.60218 | 28280 ft | 469 kts | 215° |
| 2026-05-07 08:30 | 50.30821 | 10.57379 | 28788 ft | 466 kts | 215° |
| 2026-05-07 08:31 | 50.28119 | 10.54497 | 29238 ft | 464 kts | 214° |
| 2026-05-07 08:31 | 50.25488 | 10.51694 | 29609 ft | 463 kts | 215° |
| 2026-05-07 08:31 | 50.22830 | 10.48814 | 29945 ft | 463 kts | 217° |
| 2026-05-07 08:31 | 50.20425 | 10.45500 | 30276 ft | 462 kts | 226° |
| 2026-05-07 08:32 | 50.18212 | 10.41879 | 30712 ft | 458 kts | 227° |
| 2026-05-07 08:32 | 50.16032 | 10.38285 | 31262 ft | 454 kts | 227° |
| 2026-05-07 08:32 | 50.13856 | 10.34743 | 31697 ft | 452 kts | 226° |
| 2026-05-07 08:32 | 50.11674 | 10.31247 | 32247 ft | 448 kts | 226° |
| 2026-05-07 08:33 | 50.09486 | 10.27781 | 32533 ft | 449 kts | 224° |
| 2026-05-07 08:33 | 50.07091 | 10.24669 | 32714 ft | 450 kts | 215° |
| 2026-05-07 08:33 | 50.04414 | 10.22127 | 32918 ft | 452 kts | 206° |
| 2026-05-07 08:33 | 50.01554 | 10.20114 | 33279 ft | 449 kts | 204° |
| 2026-05-07 08:34 | 49.98695 | 10.18172 | 33618 ft | 447 kts | 204° |
| 2026-05-07 08:34 | 49.95845 | 10.16245 | 33942 ft | 446 kts | 204° |
| 2026-05-07 08:34 | 49.93035 | 10.14336 | 34198 ft | 445 kts | 204° |
| 2026-05-07 08:34 | 49.90197 | 10.12395 | 34403 ft | 446 kts | 204° |
| 2026-05-07 08:35 | 49.87355 | 10.10440 | 34608 ft | 446 kts | 204° |
| 2026-05-07 08:35 | 49.84519 | 10.08484 | 34806 ft | 446 kts | 204° |
| 2026-05-07 08:35 | 49.81685 | 10.06527 | 35012 ft | 446 kts | 204° |
| 2026-05-07 08:35 | 49.78847 | 10.04567 | 35205 ft | 446 kts | 204° |
| 2026-05-07 08:36 | 49.76017 | 10.02615 | 35357 ft | 446 kts | 204° |
| 2026-05-07 08:36 | 49.73183 | 10.00663 | 35538 ft | 446 kts | 205° |
| 2026-05-07 08:36 | 49.71300 | 9.99368 | 35658 ft | 446 kts | 205° |
| 2026-05-07 08:36 | 49.68467 | 9.97421 | 35845 ft | 445 kts | 205° |
| 2026-05-07 08:37 | 49.65631 | 9.95475 | 35965 ft | 446 kts | 205° |
| 2026-05-07 08:37 | 49.62785 | 9.93524 | 35974 ft | 449 kts | 205° |
| 2026-05-07 08:37 | 49.57095 | 9.89634 | 35978 ft | 450 kts | 205° |
| 2026-05-07 08:38 | 49.51380 | 9.85735 | 35986 ft | 448 kts | 205° |
| 2026-05-07 08:38 | 49.45698 | 9.81869 | 35990 ft | 446 kts | 205° |
| 2026-05-07 08:39 | 49.40030 | 9.78023 | 35992 ft | 444 kts | 205° |
| 2026-05-07 08:39 | 49.34381 | 9.74199 | 35991 ft | 444 kts | 205° |
| 2026-05-07 08:40 | 49.28769 | 9.70410 | 35990 ft | 443 kts | 205° |
| 2026-05-07 08:40 | 49.23118 | 9.66603 | 35983 ft | 444 kts | 205° |
| 2026-05-07 08:41 | 49.17448 | 9.62794 | 35995 ft | 445 kts | 205° |
| 2026-05-07 08:41 | 49.11766 | 9.58986 | 35991 ft | 445 kts | 205° |
| 2026-05-07 08:42 | 49.06079 | 9.55184 | 36002 ft | 447 kts | 205° |
| 2026-05-07 08:42 | 49.00404 | 9.51399 | 35991 ft | 449 kts | 205° |
| 2026-05-07 08:43 | 48.94678 | 9.47590 | 35990 ft | 449 kts | 205° |
| 2026-05-07 08:43 | 48.88946 | 9.43787 | 35990 ft | 449 kts | 205° |
| 2026-05-07 08:44 | 48.83211 | 9.39992 | 35988 ft | 449 kts | 205° |
| 2026-05-07 08:44 | 48.77488 | 9.36212 | 36007 ft | 448 kts | 205° |
| 2026-05-07 08:45 | 48.71746 | 9.32430 | 35998 ft | 450 kts | 205° |
| 2026-05-07 08:45 | 48.65998 | 9.28671 | 35996 ft | 449 kts | 202° |
| 2026-05-07 08:46 | 48.63030 | 9.27507 | 35988 ft | 451 kts | 187° |
| 2026-05-07 08:46 | 48.59893 | 9.27468 | 35995 ft | 452 kts | 175° |
| 2026-05-07 08:46 | 48.56804 | 9.28468 | 35995 ft | 455 kts | 162° |
| 2026-05-07 08:46 | 48.53839 | 9.30125 | 36008 ft | 454 kts | 161° |
| 2026-05-07 08:47 | 48.47925 | 9.33612 | 36000 ft | 458 kts | 161° |
| 2026-05-07 08:47 | 48.44944 | 9.35339 | 36105 ft | 460 kts | 161° |
| 2026-05-07 08:47 | 48.41956 | 9.37037 | 36330 ft | 458 kts | 161° |
| 2026-05-07 08:48 | 48.38965 | 9.38714 | 36570 ft | 456 kts | 162° |
| 2026-05-07 08:48 | 48.35994 | 9.40369 | 36797 ft | 455 kts | 162° |
| 2026-05-07 08:48 | 48.33026 | 9.42018 | 36978 ft | 454 kts | 162° |
| 2026-05-07 08:48 | 48.30059 | 9.43666 | 36992 ft | 456 kts | 162° |
| 2026-05-07 08:49 | 48.24074 | 9.46910 | 36999 ft | 456 kts | 165° |
| 2026-05-07 08:49 | 48.18046 | 9.49530 | 37001 ft | 453 kts | 167° |
| 2026-05-07 08:50 | 48.11987 | 9.52054 | 37001 ft | 451 kts | 166° |
| 2026-05-07 08:50 | 48.05958 | 9.54646 | 37008 ft | 449 kts | 166° |
| 2026-05-07 08:51 | 48.00137 | 9.58075 | 37003 ft | 453 kts | 151° |
| 2026-05-07 08:51 | 47.94914 | 9.63380 | 37009 ft | 455 kts | 147° |
| 2026-05-07 08:52 | 47.89754 | 9.68760 | 37019 ft | 456 kts | 148° |
| 2026-05-07 08:52 | 47.84522 | 9.74142 | 37024 ft | 457 kts | 148° |
| 2026-05-07 08:53 | 47.79267 | 9.79492 | 37023 ft | 458 kts | 149° |
| 2026-05-07 08:53 | 47.73996 | 9.84832 | 37035 ft | 459 kts | 149° |
| 2026-05-07 08:54 | 47.68699 | 9.90187 | 37036 ft | 461 kts | 149° |
| 2026-05-07 08:54 | 47.63386 | 9.95545 | 37032 ft | 462 kts | 149° |
| 2026-05-07 08:55 | 47.58092 | 10.00874 | 37035 ft | 462 kts | 149° |
| 2026-05-07 08:55 | 47.52784 | 10.06202 | 37033 ft | 462 kts | 149° |
| 2026-05-07 08:56 | 47.47456 | 10.11537 | 37019 ft | 462 kts | 149° |
| 2026-05-07 08:56 | 47.42136 | 10.16851 | 37031 ft | 461 kts | 149° |
| 2026-05-07 08:57 | 47.36817 | 10.22151 | 37018 ft | 460 kts | 149° |
| 2026-05-07 08:57 | 47.31522 | 10.27414 | 37010 ft | 458 kts | 149° |
| 2026-05-07 08:58 | 47.26227 | 10.32664 | 37007 ft | 458 kts | 149° |
| 2026-05-07 08:58 | 47.20980 | 10.37854 | 36995 ft | 457 kts | 150° |
| 2026-05-07 08:59 | 47.15704 | 10.43060 | 37015 ft | 456 kts | 150° |
| 2026-05-07 08:59 | 47.10434 | 10.48250 | 36979 ft | 456 kts | 150° |
| 2026-05-07 09:00 | 47.05091 | 10.53086 | 36993 ft | 450 kts | 159° |
| 2026-05-07 09:00 | 46.99200 | 10.55966 | 37010 ft | 445 kts | 167° |
| 2026-05-07 09:01 | 46.93249 | 10.58542 | 37006 ft | 446 kts | 167° |
| 2026-05-07 09:01 | 46.87307 | 10.61213 | 36994 ft | 447 kts | 167° |
| 2026-05-07 09:02 | 46.81356 | 10.63893 | 36988 ft | 447 kts | 167° |
| 2026-05-07 09:02 | 46.75450 | 10.66536 | 36995 ft | 447 kts | 167° |
| 2026-05-07 09:03 | 46.69458 | 10.68991 | 37038 ft | 447 kts | 171° |
| 2026-05-07 09:03 | 46.63389 | 10.70955 | 36984 ft | 445 kts | 172° |
| 2026-05-07 09:04 | 46.57342 | 10.72855 | 36987 ft | 444 kts | 172° |
| 2026-05-07 09:04 | 46.51310 | 10.74786 | 36993 ft | 443 kts | 171° |
| 2026-05-07 09:05 | 46.45296 | 10.76734 | 36979 ft | 443 kts | 172° |
| 2026-05-07 09:05 | 46.39317 | 10.78673 | 36950 ft | 441 kts | 172° |
| 2026-05-07 09:06 | 46.33315 | 10.80613 | 37007 ft | 444 kts | 172° |
| 2026-05-07 09:06 | 46.27251 | 10.82569 | 37015 ft | 448 kts | 172° |
| 2026-05-07 09:07 | 46.21153 | 10.84534 | 37008 ft | 449 kts | 172° |
| 2026-05-07 09:07 | 46.15087 | 10.86478 | 36991 ft | 440 kts | 172° |
| 2026-05-07 09:08 | 46.09134 | 10.88390 | 36997 ft | 437 kts | 172° |
| 2026-05-07 09:08 | 46.03202 | 10.90291 | 36977 ft | 436 kts | 172° |
| 2026-05-07 09:09 | 45.97270 | 10.92183 | 36981 ft | 436 kts | 172° |
| 2026-05-07 09:09 | 45.91369 | 10.94062 | 36985 ft | 438 kts | 172° |
| 2026-05-07 09:10 | 45.85406 | 10.95955 | 36984 ft | 440 kts | 172° |
| 2026-05-07 09:10 | 45.79436 | 10.97859 | 36981 ft | 440 kts | 172° |
| 2026-05-07 09:11 | 45.73449 | 10.99744 | 36983 ft | 441 kts | 172° |
| 2026-05-07 09:11 | 45.67472 | 11.01630 | 36981 ft | 442 kts | 173° |
| 2026-05-07 09:12 | 45.61496 | 11.03888 | 36975 ft | 447 kts | 166° |
| 2026-05-07 09:12 | 45.55637 | 11.06940 | 36985 ft | 449 kts | 165° |
| 2026-05-07 09:13 | 45.49780 | 11.10041 | 36991 ft | 449 kts | 165° |
| 2026-05-07 09:13 | 45.43911 | 11.13084 | 36976 ft | 448 kts | 166° |
| 2026-05-07 09:14 | 45.38088 | 11.16059 | 36984 ft | 446 kts | 166° |
| 2026-05-07 09:14 | 45.32261 | 11.19020 | 36988 ft | 445 kts | 166° |
| 2026-05-07 09:15 | 45.26429 | 11.21976 | 36989 ft | 445 kts | 166° |
| 2026-05-07 09:15 | 45.20604 | 11.24923 | 36978 ft | 444 kts | 166° |
| 2026-05-07 09:16 | 45.14794 | 11.27858 | 36988 ft | 444 kts | 166° |
| 2026-05-07 09:16 | 45.09046 | 11.30755 | 36998 ft | 444 kts | 166° |
| 2026-05-07 09:17 | 45.03225 | 11.33682 | 36995 ft | 444 kts | 166° |
| 2026-05-07 09:17 | 44.97393 | 11.36609 | 36992 ft | 444 kts | 166° |
| 2026-05-07 09:18 | 44.91565 | 11.39527 | 36997 ft | 445 kts | 166° |
| 2026-05-07 09:18 | 44.85723 | 11.42446 | 37006 ft | 446 kts | 166° |
| 2026-05-07 09:19 | 44.79869 | 11.45364 | 36971 ft | 446 kts | 166° |
| 2026-05-07 09:19 | 44.74019 | 11.48276 | 36989 ft | 446 kts | 166° |
| 2026-05-07 09:20 | 44.68169 | 11.51180 | 37002 ft | 446 kts | 166° |
| 2026-05-07 09:20 | 44.62310 | 11.54083 | 36999 ft | 446 kts | 166° |
| 2026-05-07 09:21 | 44.56480 | 11.56966 | 36991 ft | 446 kts | 167° |
| 2026-05-07 09:21 | 44.50618 | 11.59857 | 37009 ft | 446 kts | 167° |
| 2026-05-07 09:22 | 44.44764 | 11.62739 | 37002 ft | 446 kts | 167° |
| 2026-05-07 09:22 | 44.38908 | 11.65616 | 36978 ft | 446 kts | 167° |
| 2026-05-07 09:23 | 44.33051 | 11.68487 | 37000 ft | 446 kts | 167° |
| 2026-05-07 09:23 | 44.27200 | 11.71351 | 37001 ft | 446 kts | 167° |
| 2026-05-07 09:24 | 44.21310 | 11.73917 | 36998 ft | 438 kts | 176° |
| 2026-05-07 09:24 | 44.16318 | 11.74898 | 37010 ft | 436 kts | 178° |
| 2026-05-07 09:25 | 44.10303 | 11.76014 | 37007 ft | 436 kts | 178° |
| 2026-05-07 09:25 | 44.04280 | 11.77186 | 37010 ft | 437 kts | 178° |
| 2026-05-07 09:26 | 43.98281 | 11.78379 | 36994 ft | 436 kts | 178° |
| 2026-05-07 09:26 | 43.92303 | 11.79566 | 37021 ft | 436 kts | 178° |
| 2026-05-07 09:27 | 43.86289 | 11.80760 | 37023 ft | 437 kts | 178° |
| 2026-05-07 09:28 | 43.77301 | 11.82565 | 36999 ft | 438 kts | 177° |
| 2026-05-07 09:28 | 43.71305 | 11.84309 | 37032 ft | 442 kts | 173° |
| 2026-05-07 09:28 | 43.68312 | 11.85315 | 36787 ft | 447 kts | 173° |
| 2026-05-07 09:29 | 43.65279 | 11.86341 | 36316 ft | 445 kts | 173° |
| 2026-05-07 09:29 | 43.62301 | 11.87342 | 35695 ft | 438 kts | 173° |
| 2026-05-07 09:29 | 43.59351 | 11.88317 | 35062 ft | 432 kts | 174° |
| 2026-05-07 09:29 | 43.56441 | 11.89263 | 34454 ft | 427 kts | 174° |
| 2026-05-07 09:30 | 43.53567 | 11.90185 | 33813 ft | 422 kts | 174° |
| 2026-05-07 09:30 | 43.50721 | 11.91091 | 33117 ft | 419 kts | 175° |
| 2026-05-07 09:30 | 43.47880 | 11.91989 | 32476 ft | 419 kts | 175° |
| 2026-05-07 09:30 | 43.45072 | 11.92874 | 31819 ft | 419 kts | 174° |
| 2026-05-07 09:31 | 43.42230 | 11.93771 | 31201 ft | 418 kts | 174° |
| 2026-05-07 09:31 | 43.39369 | 11.94672 | 30258 ft | 424 kts | 174° |
| 2026-05-07 09:31 | 43.36458 | 11.95583 | 29012 ft | 435 kts | 174° |
| 2026-05-07 09:31 | 43.33482 | 11.96517 | 27969 ft | 440 kts | 173° |
| 2026-05-07 09:32 | 43.30500 | 11.97459 | 27079 ft | 441 kts | 173° |
| 2026-05-07 09:32 | 43.27496 | 11.98410 | 26164 ft | 443 kts | 173° |
| 2026-05-07 09:32 | 43.24487 | 11.99360 | 25320 ft | 444 kts | 173° |
| 2026-05-07 09:32 | 43.21499 | 12.00305 | 24723 ft | 438 kts | 173° |
| 2026-05-07 09:33 | 43.18541 | 12.01240 | 24072 ft | 435 kts | 172° |
| 2026-05-07 09:33 | 43.15603 | 12.02166 | 23430 ft | 431 kts | 172° |
| 2026-05-07 09:33 | 43.12691 | 12.03080 | 22715 ft | 427 kts | 172° |
| 2026-05-07 09:33 | 43.09811 | 12.03984 | 22077 ft | 422 kts | 172° |
| 2026-05-07 09:34 | 43.06958 | 12.04878 | 21446 ft | 418 kts | 172° |
| 2026-05-07 09:34 | 43.04148 | 12.05757 | 20829 ft | 414 kts | 172° |
| 2026-05-07 09:34 | 43.01344 | 12.06632 | 20211 ft | 410 kts | 172° |
| 2026-05-07 09:34 | 42.98572 | 12.07497 | 19593 ft | 407 kts | 172° |
| 2026-05-07 09:35 | 42.95818 | 12.08355 | 19009 ft | 404 kts | 171° |
| 2026-05-07 09:35 | 42.93118 | 12.09195 | 18420 ft | 402 kts | 171° |
| 2026-05-07 09:35 | 42.90400 | 12.10041 | 18020 ft | 394 kts | 171° |
| 2026-05-07 09:35 | 42.87768 | 12.10864 | 17817 ft | 382 kts | 171° |
| 2026-05-07 09:36 | 42.85214 | 12.11661 | 17640 ft | 370 kts | 172° |
| 2026-05-07 09:36 | 42.82746 | 12.12428 | 17482 ft | 360 kts | 172° |
| 2026-05-07 09:36 | 42.80325 | 12.13171 | 17329 ft | 348 kts | 172° |
| 2026-05-07 09:36 | 42.77997 | 12.13896 | 17180 ft | 339 kts | 172° |
| 2026-05-07 09:37 | 42.75758 | 12.14593 | 17036 ft | 330 kts | 172° |
| 2026-05-07 09:37 | 42.73549 | 12.15277 | 16899 ft | 321 kts | 172° |
| 2026-05-07 09:37 | 42.71396 | 12.15944 | 16775 ft | 314 kts | 172° |
| 2026-05-07 09:37 | 42.69317 | 12.16764 | 16541 ft | 314 kts | 160° |
| 2026-05-07 09:38 | 42.67400 | 12.18208 | 16274 ft | 314 kts | 154° |
| 2026-05-07 09:38 | 42.65529 | 12.19751 | 15951 ft | 314 kts | 154° |
| 2026-05-07 09:38 | 42.63671 | 12.21287 | 15648 ft | 312 kts | 154° |
| 2026-05-07 09:38 | 42.61812 | 12.22806 | 15331 ft | 311 kts | 154° |
| 2026-05-07 09:39 | 42.59952 | 12.24309 | 15021 ft | 311 kts | 155° |
| 2026-05-07 09:39 | 42.58088 | 12.25803 | 14711 ft | 310 kts | 155° |
| 2026-05-07 09:39 | 42.56223 | 12.27292 | 14390 ft | 311 kts | 155° |
| 2026-05-07 09:39 | 42.54370 | 12.28768 | 14221 ft | 306 kts | 155° |
| 2026-05-07 09:40 | 42.52553 | 12.30215 | 14078 ft | 300 kts | 155° |
| 2026-05-07 09:40 | 42.50796 | 12.31610 | 13942 ft | 294 kts | 155° |
| 2026-05-07 09:40 | 42.49051 | 12.32995 | 13812 ft | 288 kts | 155° |
| 2026-05-07 09:40 | 42.47333 | 12.34334 | 13625 ft | 281 kts | 160° |
| 2026-05-07 09:41 | 42.45499 | 12.34957 | 13337 ft | 267 kts | 185° |
| 2026-05-07 09:41 | 42.43724 | 12.34554 | 13085 ft | 258 kts | 204° |
| 2026-05-07 09:41 | 42.42180 | 12.33401 | 12827 ft | 252 kts | 222° |
| 2026-05-07 09:41 | 42.41036 | 12.31645 | 12572 ft | 248 kts | 240° |
| 2026-05-07 09:42 | 42.40412 | 12.29493 | 12312 ft | 247 kts | 258° |
| 2026-05-07 09:42 | 42.40370 | 12.27180 | 12049 ft | 248 kts | 277° |
| 2026-05-07 09:42 | 42.40912 | 12.24959 | 11805 ft | 251 kts | 294° |
| 2026-05-07 09:42 | 42.41912 | 12.23014 | 11549 ft | 255 kts | 312° |
| 2026-05-07 09:43 | 42.43376 | 12.21621 | 11311 ft | 259 kts | 325° |
| 2026-05-07 09:43 | 42.44932 | 12.20393 | 11079 ft | 259 kts | 326° |
| 2026-05-07 09:43 | 42.46498 | 12.19167 | 10827 ft | 260 kts | 326° |
| 2026-05-07 09:43 | 42.48064 | 12.17943 | 10579 ft | 260 kts | 326° |
| 2026-05-07 09:44 | 42.49629 | 12.16720 | 10350 ft | 260 kts | 326° |
| 2026-05-07 09:44 | 42.51185 | 12.15501 | 10197 ft | 256 kts | 326° |
| 2026-05-07 09:44 | 42.52716 | 12.14307 | 10113 ft | 252 kts | 328° |
| 2026-05-07 09:44 | 42.54394 | 12.13615 | 10041 ft | 257 kts | 353° |
| 2026-05-07 09:45 | 42.56215 | 12.13803 | 10027 ft | 268 kts | 12° |
| 2026-05-07 09:45 | 42.57925 | 12.14807 | 10035 ft | 276 kts | 32° |
| 2026-05-07 09:45 | 42.59307 | 12.16613 | 10021 ft | 278 kts | 56° |
| 2026-05-07 09:45 | 42.60056 | 12.19003 | 10026 ft | 276 kts | 81° |
| 2026-05-07 09:46 | 42.60050 | 12.21572 | 10017 ft | 272 kts | 105° |
| 2026-05-07 09:46 | 42.59344 | 12.23913 | 10037 ft | 267 kts | 125° |
| 2026-05-07 09:46 | 42.58153 | 12.25812 | 10030 ft | 264 kts | 146° |
| 2026-05-07 09:46 | 42.56616 | 12.27157 | 10039 ft | 263 kts | 153° |
| 2026-05-07 09:47 | 42.55013 | 12.28395 | 10038 ft | 266 kts | 154° |
| 2026-05-07 09:47 | 42.53395 | 12.29637 | 10027 ft | 268 kts | 154° |
| 2026-05-07 09:47 | 42.51775 | 12.30890 | 10016 ft | 268 kts | 153° |
| 2026-05-07 09:47 | 42.50160 | 12.32145 | 10023 ft | 267 kts | 153° |
| 2026-05-07 09:48 | 42.48549 | 12.33400 | 10016 ft | 267 kts | 153° |
| 2026-05-07 09:48 | 42.46918 | 12.34563 | 10004 ft | 262 kts | 165° |
| 2026-05-07 09:48 | 42.45158 | 12.34761 | 10031 ft | 251 kts | 194° |
| 2026-05-07 09:48 | 42.43571 | 12.33898 | 10020 ft | 245 kts | 217° |
| 2026-05-07 09:49 | 42.42403 | 12.32271 | 10028 ft | 241 kts | 240° |
| 2026-05-07 09:49 | 42.41831 | 12.30151 | 10033 ft | 242 kts | 263° |
| 2026-05-07 09:49 | 42.41957 | 12.27883 | 10036 ft | 246 kts | 286° |
| 2026-05-07 09:49 | 42.42753 | 12.25822 | 10034 ft | 252 kts | 307° |
| 2026-05-07 09:50 | 42.44095 | 12.24273 | 10039 ft | 257 kts | 324° |
| 2026-05-07 09:50 | 42.45645 | 12.23033 | 10030 ft | 260 kts | 327° |
| 2026-05-07 09:50 | 42.47231 | 12.21835 | 10033 ft | 262 kts | 327° |
| 2026-05-07 09:50 | 42.48802 | 12.20639 | 10031 ft | 263 kts | 327° |
| 2026-05-07 09:51 | 42.50390 | 12.19411 | 10026 ft | 263 kts | 327° |
| 2026-05-07 09:51 | 42.51982 | 12.18170 | 10018 ft | 262 kts | 327° |
| 2026-05-07 09:51 | 42.53559 | 12.16937 | 10019 ft | 262 kts | 327° |
| 2026-05-07 09:51 | 42.55271 | 12.16099 | 10007 ft | 266 kts | 353° |
| 2026-05-07 09:52 | 42.57099 | 12.16434 | 10022 ft | 270 kts | 20° |
| 2026-05-07 09:52 | 42.58658 | 12.17853 | 10030 ft | 273 kts | 47° |
| 2026-05-07 09:52 | 42.59587 | 12.20087 | 10026 ft | 274 kts | 76° |
| 2026-05-07 09:52 | 42.59651 | 12.22629 | 10034 ft | 271 kts | 105° |
| 2026-05-07 09:53 | 42.58852 | 12.24895 | 10039 ft | 266 kts | 133° |
| 2026-05-07 09:53 | 42.57463 | 12.26516 | 10038 ft | 264 kts | 152° |
| 2026-05-07 09:53 | 42.55865 | 12.27764 | 10039 ft | 267 kts | 154° |
| 2026-05-07 09:53 | 42.54236 | 12.29000 | 10029 ft | 269 kts | 154° |
| 2026-05-07 09:54 | 42.52604 | 12.30250 | 10016 ft | 267 kts | 154° |
| 2026-05-07 09:54 | 42.51006 | 12.31489 | 10013 ft | 262 kts | 153° |
| 2026-05-07 09:54 | 42.49445 | 12.32702 | 10022 ft | 262 kts | 153° |
| 2026-05-07 09:54 | 42.47858 | 12.33938 | 10023 ft | 264 kts | 154° |
| 2026-05-07 09:55 | 42.46164 | 12.34798 | 10012 ft | 258 kts | 179° |
| 2026-05-07 09:55 | 42.44432 | 12.34499 | 10027 ft | 251 kts | 204° |
| 2026-05-07 09:55 | 42.42980 | 12.33246 | 10030 ft | 247 kts | 227° |
| 2026-05-07 09:55 | 42.42137 | 12.31268 | 10016 ft | 245 kts | 260° |
| 2026-05-07 09:56 | 42.42338 | 12.29003 | 10039 ft | 248 kts | 290° |
| 2026-05-07 09:56 | 42.43206 | 12.26971 | 10036 ft | 252 kts | 304° |
| 2026-05-07 09:56 | 42.44378 | 12.25183 | 10034 ft | 255 kts | 313° |
| 2026-05-07 09:56 | 42.45720 | 12.23592 | 10032 ft | 258 kts | 319° |
| 2026-05-07 09:57 | 42.47174 | 12.22152 | 10029 ft | 260 kts | 322° |
| 2026-05-07 09:57 | 42.48698 | 12.20822 | 10022 ft | 261 kts | 325° |
| 2026-05-07 09:57 | 42.50252 | 12.19554 | 10021 ft | 260 kts | 326° |
| 2026-05-07 09:57 | 42.51814 | 12.18314 | 10016 ft | 260 kts | 326° |
| 2026-05-07 09:58 | 42.53377 | 12.17084 | 10020 ft | 259 kts | 326° |
| 2026-05-07 09:58 | 42.55045 | 12.16150 | 10000 ft | 263 kts | 349° |
| 2026-05-07 09:58 | 42.56842 | 12.16332 | 10026 ft | 267 kts | 16° |
| 2026-05-07 09:58 | 42.58450 | 12.17593 | 10029 ft | 271 kts | 43° |
| 2026-05-07 09:59 | 42.59491 | 12.19716 | 10025 ft | 273 kts | 72° |
| 2026-05-07 09:59 | 42.59696 | 12.22246 | 10026 ft | 271 kts | 101° |
| 2026-05-07 09:59 | 42.59020 | 12.24581 | 10035 ft | 266 kts | 129° |
| 2026-05-07 09:59 | 42.57705 | 12.26308 | 10035 ft | 263 kts | 150° |
| 2026-05-07 10:00 | 42.56125 | 12.27575 | 10037 ft | 265 kts | 154° |
| 2026-05-07 10:00 | 42.54507 | 12.28800 | 10029 ft | 267 kts | 154° |
| 2026-05-07 10:00 | 42.52883 | 12.30038 | 10031 ft | 268 kts | 154° |
| 2026-05-07 10:00 | 42.51265 | 12.31287 | 10022 ft | 268 kts | 153° |
| 2026-05-07 10:01 | 42.49654 | 12.32539 | 10019 ft | 266 kts | 153° |
| 2026-05-07 10:01 | 42.48054 | 12.33786 | 10008 ft | 265 kts | 153° |
| 2026-05-07 10:01 | 42.46357 | 12.34736 | 10008 ft | 267 kts | 178° |
| 2026-05-07 10:01 | 42.44591 | 12.34308 | 10020 ft | 260 kts | 211° |
| 2026-05-07 10:02 | 42.43101 | 12.32783 | 9485 ft | 270 kts | 224° |
| 2026-05-07 10:02 | 42.41732 | 12.31106 | 9119 ft | 267 kts | 222° |
| 2026-05-07 10:02 | 42.40308 | 12.29544 | 8843 ft | 260 kts | 218° |
| 2026-05-07 10:02 | 42.38857 | 12.28135 | 8572 ft | 253 kts | 216° |
| 2026-05-07 10:03 | 42.37398 | 12.26844 | 8338 ft | 247 kts | 213° |
| 2026-05-07 10:03 | 42.35946 | 12.25642 | 8079 ft | 241 kts | 212° |
| 2026-05-07 10:03 | 42.34518 | 12.24509 | 7847 ft | 235 kts | 211° |
| 2026-05-07 10:03 | 42.33117 | 12.23425 | 7620 ft | 228 kts | 211° |
| 2026-05-07 10:04 | 42.31759 | 12.22393 | 7424 ft | 221 kts | 211° |
| 2026-05-07 10:04 | 42.30422 | 12.21388 | 7237 ft | 218 kts | 210° |
| 2026-05-07 10:04 | 42.29126 | 12.20425 | 7001 ft | 212 kts | 210° |
| 2026-05-07 10:04 | 42.27844 | 12.19475 | 6777 ft | 210 kts | 210° |
| 2026-05-07 10:05 | 42.26544 | 12.18515 | 6596 ft | 217 kts | 210° |
| 2026-05-07 10:05 | 42.25200 | 12.17524 | 6375 ft | 222 kts | 209° |
| 2026-05-07 10:05 | 42.23825 | 12.16522 | 6152 ft | 226 kts | 206° |
| 2026-05-07 10:05 | 42.22278 | 12.16150 | 5827 ft | 231 kts | 170° |
| 2026-05-07 10:06 | 42.20761 | 12.16771 | 5578 ft | 225 kts | 163° |
| 2026-05-07 10:06 | 42.19275 | 12.17407 | 5287 ft | 223 kts | 163° |
| 2026-05-07 10:06 | 42.17809 | 12.18029 | 5042 ft | 219 kts | 163° |
| 2026-05-07 10:06 | 42.16368 | 12.18639 | 4772 ft | 215 kts | 163° |
| 2026-05-07 10:07 | 42.14933 | 12.19140 | 4442 ft | 211 kts | 179° |
| 2026-05-07 10:07 | 42.13518 | 12.18809 | 4206 ft | 204 kts | 195° |
| 2026-05-07 10:07 | 42.12153 | 12.18371 | 4008 ft | 204 kts | 193° |
| 2026-05-07 10:07 | 42.10772 | 12.17954 | 3783 ft | 199 kts | 193° |
| 2026-05-07 10:08 | 42.09434 | 12.17552 | 3520 ft | 195 kts | 193° |
| 2026-05-07 10:08 | 42.08139 | 12.17163 | 3280 ft | 192 kts | 193° |
| 2026-05-07 10:08 | 42.06825 | 12.16872 | 3091 ft | 190 kts | 176° |
| 2026-05-07 10:08 | 42.05567 | 12.17347 | 3050 ft | 189 kts | 161° |
| 2026-05-07 10:09 | 42.04315 | 12.17901 | 2988 ft | 187 kts | 163° |
| 2026-05-07 10:09 | 42.03093 | 12.18417 | 2879 ft | 181 kts | 163° |
| 2026-05-07 10:09 | 42.01901 | 12.18916 | 2748 ft | 178 kts | 163° |
| 2026-05-07 10:09 | 42.00718 | 12.19409 | 2691 ft | 177 kts | 163° |
| 2026-05-07 10:10 | 41.99534 | 12.19904 | 2572 ft | 179 kts | 163° |
| 2026-05-07 10:10 | 41.98349 | 12.20400 | 2512 ft | 178 kts | 163° |
| 2026-05-07 10:10 | 41.97175 | 12.20892 | 2511 ft | 178 kts | 163° |
| 2026-05-07 10:10 | 41.96383 | 12.21222 | 2415 ft | 181 kts | 163° |
| 2026-05-07 10:11 | 41.95160 | 12.21733 | 2188 ft | 185 kts | 162° |
| 2026-05-07 10:11 | 41.93560 | 12.22403 | 1871 ft | 177 kts | 162° |
| 2026-05-07 10:11 | 41.92421 | 12.22879 | 1678 ft | 165 kts | 162° |
| 2026-05-07 10:11 | 41.91339 | 12.23332 | 1420 ft | 160 kts | 162° |
| 2026-05-07 10:12 | 41.90629 | 12.23629 | 1278 ft | 157 kts | 162° |
| 2026-05-07 10:12 | 41.89595 | 12.24061 | 1066 ft | 154 kts | 162° |
| 2026-05-07 10:12 | 41.88565 | 12.24492 | 873 ft | 156 kts | 162° |
| 2026-05-07 10:12 | 41.87544 | 12.24923 | 668 ft | 156 kts | 162° |
| 2026-05-07 10:13 | 41.86485 | 12.25372 | 481 ft | 158 kts | 163° |
| 2026-05-07 10:13 | 41.85450 | 12.25790 | 282 ft | 157 kts | 163° |
| 2026-05-07 10:13 | 41.84408 | 12.26231 | 48 ft | 156 kts | 162° |
| 2026-05-07 10:13 | 41.83460 | 12.26625 | 13 ft | 118 kts | 162° |
| 2026-05-07 10:14 | 41.82870 | 12.26875 | 12 ft | 69 kts | 162° |
| 2026-05-07 10:14 | 41.82425 | 12.27059 | 11 ft | 65 kts | 163° |
| 2026-05-07 10:14 | 41.82011 | 12.27232 | 10 ft | 59 kts | 162° |
| 2026-05-07 10:14 | 41.81640 | 12.27389 | 14 ft | 46 kts | 162° |
| 2026-05-07 10:15 | 41.81381 | 12.27496 | 13 ft | 29 kts | 164° |
| 2026-05-07 10:15 | 41.81263 | 12.27500 | 12 ft | 13 kts | 187° |
| 2026-05-07 10:15 | 41.81167 | 12.27438 | 11 ft | 19 kts | 233° |
| 2026-05-07 10:15 | 41.81072 | 12.27318 | 11 ft | 20 kts | 187° |
| 2026-05-07 10:16 | 41.80937 | 12.27351 | 12 ft | 20 kts | 174° |
| 2026-05-07 10:16 | 41.80802 | 12.27328 | 11 ft | 19 kts | 191° |
| 2026-05-07 10:16 | 41.80675 | 12.27263 | 13 ft | 21 kts | 227° |
| 2026-05-07 10:16 | 41.80619 | 12.27092 | 12 ft | 13 kts | 249° |
| 2026-05-07 10:17 | 41.80557 | 12.27044 | 14 ft | 10 kts | 162° |
| 2026-05-07 10:17 | 41.80481 | 12.27087 | 13 ft | 13 kts | 159° |
| 2026-05-07 10:17 | 41.80438 | 12.27108 | 14 ft | 1 kts | 160° |
| 2026-05-07 10:17 | 41.80430 | 12.27112 | 13 ft | 0 kts | 159° |